sensor_id;sensor_type;location;lat;lon;timestamp;P1;durP1;ratioP1;P2;durP2;ratioP2
49834;SDS011;35729;52.090;13.162;2023-12-20T00:01:10;34.58;;;12.18;;
49834;SDS011;35729;52.090;13.162;2023-12-20T00:03:39;33.38;;;12.95;;
49834;SDS011;35729;52.090;13.162;2023-12-20T00:06:07;35.13;;;11.68;;
49834;SDS011;35729;52.090;13.162;2023-12-20T00:08:37;32.03;;;11.52;;
49834;SDS011;35729;52.090;13.162;2023-12-20T00:11:05;32.35;;;12.57;;
49834;SDS011;35729;52.090;13.162;2023-12-20T00:13:36;37.60;;;13.82;;
49834;SDS011;35729;52.090;13.162;2023-12-20T00:16:05;31.98;;;12.00;;
49834;SDS011;35729;52.090;13.162;2023-12-20T00:18:34;29.52;;;11.73;;
49834;SDS011;35729;52.090;13.162;2023-12-20T00:21:02;33.35;;;13.10;;
49834;SDS011;35729;52.090;13.162;2023-12-20T00:23:38;30.92;;;12.07;;
49834;SDS011;35729;52.090;13.162;2023-12-20T00:26:06;36.25;;;11.85;;
49834;SDS011;35729;52.090;13.162;2023-12-20T00:28:37;31.95;;;11.15;;
49834;SDS011;35729;52.090;13.162;2023-12-20T00:31:06;34.22;;;11.95;;
49834;SDS011;35729;52.090;13.162;2023-12-20T00:33:34;33.80;;;11.77;;
49834;SDS011;35729;52.090;13.162;2023-12-20T00:36:03;29.55;;;11.57;;
49834;SDS011;35729;52.090;13.162;2023-12-20T00:38:32;34.38;;;13.48;;
49834;SDS011;35729;52.090;13.162;2023-12-20T00:41:00;33.38;;;12.32;;
49834;SDS011;35729;52.090;13.162;2023-12-20T00:43:29;36.80;;;12.93;;
49834;SDS011;35729;52.090;13.162;2023-12-20T00:46:00;34.40;;;13.18;;
49834;SDS011;35729;52.090;13.162;2023-12-20T00:48:28;36.53;;;12.85;;
49834;SDS011;35729;52.090;13.162;2023-12-20T00:50:57;36.42;;;13.10;;
49834;SDS011;35729;52.090;13.162;2023-12-20T00:53:26;41.90;;;13.45;;
49834;SDS011;35729;52.090;13.162;2023-12-20T00:55:54;41.75;;;14.55;;
49834;SDS011;35729;52.090;13.162;2023-12-20T00:58:23;40.05;;;13.10;;
49834;SDS011;35729;52.090;13.162;2023-12-20T01:00:53;38.90;;;14.30;;
49834;SDS011;35729;52.090;13.162;2023-12-20T01:03:24;40.45;;;14.38;;
49834;SDS011;35729;52.090;13.162;2023-12-20T01:05:52;39.75;;;15.07;;
49834;SDS011;35729;52.090;13.162;2023-12-20T01:08:21;36.65;;;13.95;;
49834;SDS011;35729;52.090;13.162;2023-12-20T01:10:50;46.28;;;16.90;;
49834;SDS011;35729;52.090;13.162;2023-12-20T01:13:19;46.35;;;15.90;;
49834;SDS011;35729;52.090;13.162;2023-12-20T01:16:10;44.65;;;17.10;;
49834;SDS011;35729;52.090;13.162;2023-12-20T01:18:41;49.22;;;17.80;;
49834;SDS011;35729;52.090;13.162;2023-12-20T01:21:09;52.28;;;19.23;;
49834;SDS011;35729;52.090;13.162;2023-12-20T01:23:38;46.60;;;17.42;;
49834;SDS011;35729;52.090;13.162;2023-12-20T01:26:06;49.90;;;18.35;;
49834;SDS011;35729;52.090;13.162;2023-12-20T01:28:42;53.03;;;18.30;;
49834;SDS011;35729;52.090;13.162;2023-12-20T01:31:17;56.28;;;19.70;;
49834;SDS011;35729;52.090;13.162;2023-12-20T01:33:48;62.38;;;20.35;;
49834;SDS011;35729;52.090;13.162;2023-12-20T01:36:16;64.95;;;21.10;;
49834;SDS011;35729;52.090;13.162;2023-12-20T01:38:45;59.10;;;18.80;;
49834;SDS011;35729;52.090;13.162;2023-12-20T01:41:13;58.95;;;20.77;;
49834;SDS011;35729;52.090;13.162;2023-12-20T01:43:42;65.70;;;23.35;;
49834;SDS011;35729;52.090;13.162;2023-12-20T01:46:10;71.80;;;26.23;;
49834;SDS011;35729;52.090;13.162;2023-12-20T01:48:39;67.00;;;22.92;;
49834;SDS011;35729;52.090;13.162;2023-12-20T01:51:11;61.10;;;22.77;;
49834;SDS011;35729;52.090;13.162;2023-12-20T01:53:40;66.30;;;22.35;;
49834;SDS011;35729;52.090;13.162;2023-12-20T01:56:10;63.85;;;21.95;;
49834;SDS011;35729;52.090;13.162;2023-12-20T01:58:42;79.53;;;26.85;;
49834;SDS011;35729;52.090;13.162;2023-12-20T02:01:12;61.33;;;22.05;;
49834;SDS011;35729;52.090;13.162;2023-12-20T02:03:41;61.03;;;21.45;;
49834;SDS011;35729;52.090;13.162;2023-12-20T02:06:12;56.90;;;19.38;;
49834;SDS011;35729;52.090;13.162;2023-12-20T02:08:41;57.38;;;19.73;;
49834;SDS011;35729;52.090;13.162;2023-12-20T02:11:10;56.00;;;19.80;;
49834;SDS011;35729;52.090;13.162;2023-12-20T02:13:38;53.10;;;17.50;;
49834;SDS011;35729;52.090;13.162;2023-12-20T02:16:07;51.08;;;18.13;;
49834;SDS011;35729;52.090;13.162;2023-12-20T02:18:35;58.85;;;18.45;;
49834;SDS011;35729;52.090;13.162;2023-12-20T02:21:04;52.30;;;16.80;;
49834;SDS011;35729;52.090;13.162;2023-12-20T02:23:35;49.50;;;16.50;;
49834;SDS011;35729;52.090;13.162;2023-12-20T02:26:04;46.45;;;15.75;;
49834;SDS011;35729;52.090;13.162;2023-12-20T02:28:33;44.17;;;15.40;;
49834;SDS011;35729;52.090;13.162;2023-12-20T02:31:02;42.70;;;14.68;;
49834;SDS011;35729;52.090;13.162;2023-12-20T02:33:31;46.00;;;15.25;;
49834;SDS011;35729;52.090;13.162;2023-12-20T02:35:59;42.35;;;14.77;;
49834;SDS011;35729;52.090;13.162;2023-12-20T02:38:28;37.33;;;13.93;;
49834;SDS011;35729;52.090;13.162;2023-12-20T02:40:59;33.17;;;13.32;;
49834;SDS011;35729;52.090;13.162;2023-12-20T02:43:28;37.47;;;14.15;;
49834;SDS011;35729;52.090;13.162;2023-12-20T02:45:56;33.95;;;13.20;;
49834;SDS011;35729;52.090;13.162;2023-12-20T02:48:25;35.83;;;14.02;;
49834;SDS011;35729;52.090;13.162;2023-12-20T02:50:53;33.58;;;12.73;;
49834;SDS011;35729;52.090;13.162;2023-12-20T02:53:22;38.53;;;13.75;;
49834;SDS011;35729;52.090;13.162;2023-12-20T02:55:51;39.70;;;14.02;;
49834;SDS011;35729;52.090;13.162;2023-12-20T02:58:22;40.15;;;14.93;;
49834;SDS011;35729;52.090;13.162;2023-12-20T03:00:50;34.63;;;13.63;;
49834;SDS011;35729;52.090;13.162;2023-12-20T03:03:19;36.08;;;14.35;;
49834;SDS011;35729;52.090;13.162;2023-12-20T03:05:47;42.78;;;14.70;;
49834;SDS011;35729;52.090;13.162;2023-12-20T03:08:16;39.95;;;15.18;;
49834;SDS011;35729;52.090;13.162;2023-12-20T03:10:44;35.90;;;13.70;;
49834;SDS011;35729;52.090;13.162;2023-12-20T03:13:13;38.33;;;13.73;;
49834;SDS011;35729;52.090;13.162;2023-12-20T03:15:44;34.55;;;13.32;;
49834;SDS011;35729;52.090;13.162;2023-12-20T03:18:12;41.45;;;14.88;;
49834;SDS011;35729;52.090;13.162;2023-12-20T03:20:41;41.05;;;14.05;;
49834;SDS011;35729;52.090;13.162;2023-12-20T03:23:10;34.90;;;14.25;;
49834;SDS011;35729;52.090;13.162;2023-12-20T03:25:38;34.72;;;14.00;;
49834;SDS011;35729;52.090;13.162;2023-12-20T03:28:06;39.95;;;14.15;;
49834;SDS011;35729;52.090;13.162;2023-12-20T03:30:35;32.80;;;14.23;;
49834;SDS011;35729;52.090;13.162;2023-12-20T03:33:06;38.83;;;14.05;;
49834;SDS011;35729;52.090;13.162;2023-12-20T03:35:35;35.15;;;13.93;;
49834;SDS011;35729;52.090;13.162;2023-12-20T03:38:03;37.65;;;13.73;;
49834;SDS011;35729;52.090;13.162;2023-12-20T03:40:32;41.00;;;16.00;;
49834;SDS011;35729;52.090;13.162;2023-12-20T03:43:00;39.90;;;15.10;;
49834;SDS011;35729;52.090;13.162;2023-12-20T03:45:29;34.85;;;14.15;;
49834;SDS011;35729;52.090;13.162;2023-12-20T03:47:57;37.38;;;14.20;;
49834;SDS011;35729;52.090;13.162;2023-12-20T03:50:28;36.10;;;14.02;;
49834;SDS011;35729;52.090;13.162;2023-12-20T03:52:57;34.90;;;14.07;;
49834;SDS011;35729;52.090;13.162;2023-12-20T03:55:25;35.72;;;14.45;;
49834;SDS011;35729;52.090;13.162;2023-12-20T03:57:54;31.42;;;13.82;;
49834;SDS011;35729;52.090;13.162;2023-12-20T04:00:22;32.45;;;13.98;;
49834;SDS011;35729;52.090;13.162;2023-12-20T04:02:50;31.30;;;13.00;;
49834;SDS011;35729;52.090;13.162;2023-12-20T04:05:19;31.58;;;13.68;;
49834;SDS011;35729;52.090;13.162;2023-12-20T04:07:50;31.75;;;13.45;;
49834;SDS011;35729;52.090;13.162;2023-12-20T04:10:19;32.55;;;12.45;;
49834;SDS011;35729;52.090;13.162;2023-12-20T04:12:47;30.15;;;11.90;;
49834;SDS011;35729;52.090;13.162;2023-12-20T04:15:16;28.58;;;12.57;;
49834;SDS011;35729;52.090;13.162;2023-12-20T04:17:44;27.38;;;11.57;;
49834;SDS011;35729;52.090;13.162;2023-12-20T04:20:13;23.52;;;10.73;;
49834;SDS011;35729;52.090;13.162;2023-12-20T04:22:41;26.85;;;11.23;;
49834;SDS011;35729;52.090;13.162;2023-12-20T04:25:13;28.02;;;11.70;;
49834;SDS011;35729;52.090;13.162;2023-12-20T04:27:41;27.15;;;11.23;;
49834;SDS011;35729;52.090;13.162;2023-12-20T04:30:10;24.90;;;11.10;;
49834;SDS011;35729;52.090;13.162;2023-12-20T04:32:38;24.40;;;9.35;;
49834;SDS011;35729;52.090;13.162;2023-12-20T04:35:14;22.95;;;10.35;;
49834;SDS011;35729;52.090;13.162;2023-12-20T04:37:42;23.00;;;9.70;;
49834;SDS011;35729;52.090;13.162;2023-12-20T04:40:13;19.17;;;9.30;;
49834;SDS011;35729;52.090;13.162;2023-12-20T04:42:42;20.55;;;9.40;;
49834;SDS011;35729;52.090;13.162;2023-12-20T04:45:10;19.35;;;8.40;;
49834;SDS011;35729;52.090;13.162;2023-12-20T04:47:41;18.83;;;8.57;;
49834;SDS011;35729;52.090;13.162;2023-12-20T04:50:12;20.77;;;7.43;;
49834;SDS011;35729;52.090;13.162;2023-12-20T04:52:41;16.02;;;7.43;;
49834;SDS011;35729;52.090;13.162;2023-12-20T04:55:10;14.13;;;6.43;;
49834;SDS011;35729;52.090;13.162;2023-12-20T04:57:41;18.15;;;7.03;;
49834;SDS011;35729;52.090;13.162;2023-12-20T05:00:10;16.10;;;6.35;;
49834;SDS011;35729;52.090;13.162;2023-12-20T05:02:40;20.73;;;10.90;;
49834;SDS011;35729;52.090;13.162;2023-12-20T05:05:09;18.70;;;9.23;;
49834;SDS011;35729;52.090;13.162;2023-12-20T05:07:40;10.38;;;6.50;;
49834;SDS011;35729;52.090;13.162;2023-12-20T05:10:09;12.95;;;6.00;;
49834;SDS011;35729;52.090;13.162;2023-12-20T05:12:40;12.52;;;6.55;;
49834;SDS011;35729;52.090;13.162;2023-12-20T05:15:08;14.07;;;6.53;;
49834;SDS011;35729;52.090;13.162;2023-12-20T05:17:37;11.15;;;6.35;;
49834;SDS011;35729;52.090;13.162;2023-12-20T05:20:06;15.30;;;6.10;;
49834;SDS011;35729;52.090;13.162;2023-12-20T05:22:36;18.65;;;8.05;;
49834;SDS011;35729;52.090;13.162;2023-12-20T05:25:05;24.27;;;10.95;;
49834;SDS011;35729;52.090;13.162;2023-12-20T05:27:33;38.45;;;16.17;;
49834;SDS011;35729;52.090;13.162;2023-12-20T05:30:05;26.95;;;12.73;;
49834;SDS011;35729;52.090;13.162;2023-12-20T05:32:34;26.00;;;9.15;;
49834;SDS011;35729;52.090;13.162;2023-12-20T05:35:04;16.25;;;8.77;;
49834;SDS011;35729;52.090;13.162;2023-12-20T05:37:32;17.00;;;7.32;;
49834;SDS011;35729;52.090;13.162;2023-12-20T05:40:01;18.67;;;7.60;;
49834;SDS011;35729;52.090;13.162;2023-12-20T05:42:29;16.40;;;6.90;;
49834;SDS011;35729;52.090;13.162;2023-12-20T05:44:58;16.85;;;7.05;;
49834;SDS011;35729;52.090;13.162;2023-12-20T05:47:29;20.15;;;6.80;;
49834;SDS011;35729;52.090;13.162;2023-12-20T05:49:57;21.80;;;6.40;;
49834;SDS011;35729;52.090;13.162;2023-12-20T05:52:26;20.33;;;6.00;;
49834;SDS011;35729;52.090;13.162;2023-12-20T05:54:54;17.58;;;5.20;;
49834;SDS011;35729;52.090;13.162;2023-12-20T05:57:23;17.60;;;4.75;;
49834;SDS011;35729;52.090;13.162;2023-12-20T05:59:51;16.35;;;4.70;;
49834;SDS011;35729;52.090;13.162;2023-12-20T06:02:19;13.48;;;4.82;;
49834;SDS011;35729;52.090;13.162;2023-12-20T06:04:51;15.75;;;4.82;;
49834;SDS011;35729;52.090;13.162;2023-12-20T06:07:19;12.80;;;4.43;;
49834;SDS011;35729;52.090;13.162;2023-12-20T06:09:48;13.18;;;4.10;;
49834;SDS011;35729;52.090;13.162;2023-12-20T06:12:16;13.30;;;4.00;;
49834;SDS011;35729;52.090;13.162;2023-12-20T06:14:45;14.10;;;4.10;;
49834;SDS011;35729;52.090;13.162;2023-12-20T06:17:13;15.02;;;3.75;;
49834;SDS011;35729;52.090;13.162;2023-12-20T06:19:42;15.30;;;3.63;;
49834;SDS011;35729;52.090;13.162;2023-12-20T06:22:15;14.90;;;3.42;;
49834;SDS011;35729;52.090;13.162;2023-12-20T06:24:51;14.18;;;3.25;;
49834;SDS011;35729;52.090;13.162;2023-12-20T06:27:19;10.07;;;4.03;;
49834;SDS011;35729;52.090;13.162;2023-12-20T06:29:47;15.70;;;3.25;;
49834;SDS011;35729;52.090;13.162;2023-12-20T06:32:16;15.27;;;3.65;;
49834;SDS011;35729;52.090;13.162;2023-12-20T06:34:44;14.07;;;3.88;;
49834;SDS011;35729;52.090;13.162;2023-12-20T06:37:15;11.63;;;3.60;;
49834;SDS011;35729;52.090;13.162;2023-12-20T06:39:44;19.45;;;3.58;;
49834;SDS011;35729;52.090;13.162;2023-12-20T06:42:12;18.90;;;3.97;;
49834;SDS011;35729;52.090;13.162;2023-12-20T06:44:41;12.38;;;3.88;;
49834;SDS011;35729;52.090;13.162;2023-12-20T06:47:09;20.48;;;4.00;;
49834;SDS011;35729;52.090;13.162;2023-12-20T06:49:39;12.07;;;3.83;;
49834;SDS011;35729;52.090;13.162;2023-12-20T06:52:07;12.38;;;4.65;;
49834;SDS011;35729;52.090;13.162;2023-12-20T06:54:38;19.00;;;4.38;;
49834;SDS011;35729;52.090;13.162;2023-12-20T06:57:07;14.82;;;4.22;;
49834;SDS011;35729;52.090;13.162;2023-12-20T06:59:38;11.80;;;3.95;;
49834;SDS011;35729;52.090;13.162;2023-12-20T07:02:06;13.15;;;4.03;;
49834;SDS011;35729;52.090;13.162;2023-12-20T07:04:38;16.17;;;4.38;;
49834;SDS011;35729;52.090;13.162;2023-12-20T07:07:07;17.88;;;4.47;;
49834;SDS011;35729;52.090;13.162;2023-12-20T07:09:38;16.40;;;3.67;;
49834;SDS011;35729;52.090;13.162;2023-12-20T07:12:08;14.18;;;3.65;;
49834;SDS011;35729;52.090;13.162;2023-12-20T07:14:36;10.15;;;3.80;;
49834;SDS011;35729;52.090;13.162;2023-12-20T07:17:05;10.20;;;3.45;;
49834;SDS011;35729;52.090;13.162;2023-12-20T07:19:36;10.52;;;3.75;;
49834;SDS011;35729;52.090;13.162;2023-12-20T07:22:05;9.70;;;3.72;;
49834;SDS011;35729;52.090;13.162;2023-12-20T07:24:34;13.10;;;4.10;;
49834;SDS011;35729;52.090;13.162;2023-12-20T07:27:05;12.18;;;4.63;;
49834;SDS011;35729;52.090;13.162;2023-12-20T07:29:34;12.20;;;4.65;;
49834;SDS011;35729;52.090;13.162;2023-12-20T07:32:03;17.08;;;5.18;;
49834;SDS011;35729;52.090;13.162;2023-12-20T07:34:32;11.32;;;4.38;;
49834;SDS011;35729;52.090;13.162;2023-12-20T07:37:00;16.65;;;5.70;;
49834;SDS011;35729;52.090;13.162;2023-12-20T07:39:29;13.93;;;3.80;;
49834;SDS011;35729;52.090;13.162;2023-12-20T07:41:57;11.90;;;3.90;;
49834;SDS011;35729;52.090;13.162;2023-12-20T07:44:28;15.10;;;3.75;;
49834;SDS011;35729;52.090;13.162;2023-12-20T07:46:57;12.63;;;3.20;;
49834;SDS011;35729;52.090;13.162;2023-12-20T07:49:26;8.98;;;3.42;;
49834;SDS011;35729;52.090;13.162;2023-12-20T07:51:54;19.05;;;3.88;;
49834;SDS011;35729;52.090;13.162;2023-12-20T07:54:23;14.57;;;4.03;;
49834;SDS011;35729;52.090;13.162;2023-12-20T07:56:51;13.20;;;4.20;;
49834;SDS011;35729;52.090;13.162;2023-12-20T07:59:19;13.25;;;4.15;;
49834;SDS011;35729;52.090;13.162;2023-12-20T08:01:51;13.18;;;3.78;;
49834;SDS011;35729;52.090;13.162;2023-12-20T08:04:19;13.18;;;3.80;;
49834;SDS011;35729;52.090;13.162;2023-12-20T08:06:47;8.93;;;2.50;;
49834;SDS011;35729;52.090;13.162;2023-12-20T08:09:16;8.15;;;2.40;;
49834;SDS011;35729;52.090;13.162;2023-12-20T08:11:44;8.13;;;2.38;;
49834;SDS011;35729;52.090;13.162;2023-12-20T08:14:13;8.65;;;2.67;;
49834;SDS011;35729;52.090;13.162;2023-12-20T08:16:42;10.93;;;2.78;;
49834;SDS011;35729;52.090;13.162;2023-12-20T08:19:13;10.52;;;1.92;;
49834;SDS011;35729;52.090;13.162;2023-12-20T08:21:42;14.00;;;2.80;;
49834;SDS011;35729;52.090;13.162;2023-12-20T08:24:10;13.77;;;3.28;;
49834;SDS011;35729;52.090;13.162;2023-12-20T08:26:39;14.43;;;3.20;;
49834;SDS011;35729;52.090;13.162;2023-12-20T08:29:07;11.10;;;2.55;;
49834;SDS011;35729;52.090;13.162;2023-12-20T08:31:35;9.95;;;3.00;;
49834;SDS011;35729;52.090;13.162;2023-12-20T08:34:04;15.68;;;3.50;;
49834;SDS011;35729;52.090;13.162;2023-12-20T08:36:35;10.63;;;3.13;;
49834;SDS011;35729;52.090;13.162;2023-12-20T08:39:03;10.90;;;3.42;;
49834;SDS011;35729;52.090;13.162;2023-12-20T08:41:33;14.18;;;3.88;;
49834;SDS011;35729;52.090;13.162;2023-12-20T08:44:02;10.40;;;3.90;;
49834;SDS011;35729;52.090;13.162;2023-12-20T08:46:31;13.80;;;4.50;;
49834;SDS011;35729;52.090;13.162;2023-12-20T08:49:00;14.05;;;5.05;;
49834;SDS011;35729;52.090;13.162;2023-12-20T08:51:29;14.57;;;5.70;;
49834;SDS011;35729;52.090;13.162;2023-12-20T08:54:01;18.52;;;6.72;;
49834;SDS011;35729;52.090;13.162;2023-12-20T08:59:01;17.42;;;6.55;;
49834;SDS011;35729;52.090;13.162;2023-12-20T09:01:29;12.85;;;6.18;;
49834;SDS011;35729;52.090;13.162;2023-12-20T09:03:58;22.85;;;6.75;;
49834;SDS011;35729;52.090;13.162;2023-12-20T09:06:26;12.88;;;5.72;;
49834;SDS011;35729;52.090;13.162;2023-12-20T09:08:54;15.20;;;5.32;;
49834;SDS011;35729;52.090;13.162;2023-12-20T09:11:26;17.00;;;5.65;;
49834;SDS011;35729;52.090;13.162;2023-12-20T09:13:54;19.80;;;5.57;;
49834;SDS011;35729;52.090;13.162;2023-12-20T09:16:22;11.52;;;4.50;;
49834;SDS011;35729;52.090;13.162;2023-12-20T09:18:51;11.93;;;4.47;;
49834;SDS011;35729;52.090;13.162;2023-12-20T09:21:19;15.63;;;4.53;;
49834;SDS011;35729;52.090;13.162;2023-12-20T09:23:48;11.75;;;3.97;;
49834;SDS011;35729;52.090;13.162;2023-12-20T09:26:16;13.32;;;4.25;;
49834;SDS011;35729;52.090;13.162;2023-12-20T09:28:48;9.23;;;3.28;;
49834;SDS011;35729;52.090;13.162;2023-12-20T09:31:24;7.35;;;3.58;;
49834;SDS011;35729;52.090;13.162;2023-12-20T09:33:52;12.35;;;4.72;;
49834;SDS011;35729;52.090;13.162;2023-12-20T09:36:20;9.02;;;3.60;;
49834;SDS011;35729;52.090;13.162;2023-12-20T09:38:49;10.15;;;3.60;;
49834;SDS011;35729;52.090;13.162;2023-12-20T09:41:17;6.15;;;2.85;;
49834;SDS011;35729;52.090;13.162;2023-12-20T09:43:49;14.35;;;3.13;;
49834;SDS011;35729;52.090;13.162;2023-12-20T09:48:52;11.25;;;3.15;;
49834;SDS011;35729;52.090;13.162;2023-12-20T09:51:21;10.73;;;3.38;;
49834;SDS011;35729;52.090;13.162;2023-12-20T09:53:50;6.18;;;2.60;;
49834;SDS011;35729;52.090;13.162;2023-12-20T09:56:22;8.77;;;2.75;;
49834;SDS011;35729;52.090;13.162;2023-12-20T09:58:54;8.05;;;2.90;;
49834;SDS011;35729;52.090;13.162;2023-12-20T10:01:22;16.25;;;3.60;;
49834;SDS011;35729;52.090;13.162;2023-12-20T10:03:51;10.35;;;3.63;;
49834;SDS011;35729;52.090;13.162;2023-12-20T10:06:23;13.77;;;4.63;;
49834;SDS011;35729;52.090;13.162;2023-12-20T10:08:52;8.02;;;4.00;;
49834;SDS011;35729;52.090;13.162;2023-12-20T10:11:21;11.50;;;4.38;;
49834;SDS011;35729;52.090;13.162;2023-12-20T10:13:49;10.63;;;3.85;;
49834;SDS011;35729;52.090;13.162;2023-12-20T10:16:20;12.82;;;3.83;;
49834;SDS011;35729;52.090;13.162;2023-12-20T10:18:52;12.70;;;3.72;;
49834;SDS011;35729;52.090;13.162;2023-12-20T10:21:21;8.65;;;3.22;;
49834;SDS011;35729;52.090;13.162;2023-12-20T10:23:51;11.95;;;3.75;;
49834;SDS011;35729;52.090;13.162;2023-12-20T10:26:20;11.38;;;3.00;;
49834;SDS011;35729;52.090;13.162;2023-12-20T10:28:50;9.52;;;3.20;;
49834;SDS011;35729;52.090;13.162;2023-12-20T10:31:31;9.63;;;2.90;;
49834;SDS011;35729;52.090;13.162;2023-12-20T10:34:08;7.97;;;2.33;;
49834;SDS011;35729;52.090;13.162;2023-12-20T10:36:36;10.02;;;3.10;;
49834;SDS011;35729;52.090;13.162;2023-12-20T10:39:04;8.52;;;2.55;;
49834;SDS011;35729;52.090;13.162;2023-12-20T10:41:36;10.20;;;2.97;;
49834;SDS011;35729;52.090;13.162;2023-12-20T10:44:06;4.72;;;2.15;;
49834;SDS011;35729;52.090;13.162;2023-12-20T10:46:38;10.85;;;3.00;;
49834;SDS011;35729;52.090;13.162;2023-12-20T10:49:15;10.07;;;2.28;;
49834;SDS011;35729;52.090;13.162;2023-12-20T10:51:46;12.38;;;3.70;;
49834;SDS011;35729;52.090;13.162;2023-12-20T10:54:16;10.88;;;2.80;;
49834;SDS011;35729;52.090;13.162;2023-12-20T10:56:52;8.57;;;2.50;;
49834;SDS011;35729;52.090;13.162;2023-12-20T10:59:21;8.65;;;2.80;;
49834;SDS011;35729;52.090;13.162;2023-12-20T11:01:54;6.55;;;2.90;;
49834;SDS011;35729;52.090;13.162;2023-12-20T11:04:25;10.15;;;2.42;;
49834;SDS011;35729;52.090;13.162;2023-12-20T11:07:02;9.68;;;2.30;;
49834;SDS011;35729;52.090;13.162;2023-12-20T11:09:40;7.30;;;2.67;;
49834;SDS011;35729;52.090;13.162;2023-12-20T11:12:16;9.90;;;3.50;;
49834;SDS011;35729;52.090;13.162;2023-12-20T11:14:53;5.97;;;2.17;;
49834;SDS011;35729;52.090;13.162;2023-12-20T11:17:30;7.90;;;2.45;;
49834;SDS011;35729;52.090;13.162;2023-12-20T11:20:06;4.95;;;2.28;;
49834;SDS011;35729;52.090;13.162;2023-12-20T11:22:37;6.82;;;2.03;;
49834;SDS011;35729;52.090;13.162;2023-12-20T11:25:14;8.52;;;2.10;;
49834;SDS011;35729;52.090;13.162;2023-12-20T11:27:42;9.02;;;2.80;;
49834;SDS011;35729;52.090;13.162;2023-12-20T11:30:12;10.05;;;3.03;;
49834;SDS011;35729;52.090;13.162;2023-12-20T11:32:45;7.78;;;3.60;;
49834;SDS011;35729;52.090;13.162;2023-12-20T11:35:17;8.93;;;3.97;;
49834;SDS011;35729;52.090;13.162;2023-12-20T11:37:49;7.28;;;3.63;;
49834;SDS011;35729;52.090;13.162;2023-12-20T11:40:19;7.68;;;3.30;;
49834;SDS011;35729;52.090;13.162;2023-12-20T11:42:48;7.75;;;2.88;;
49834;SDS011;35729;52.090;13.162;2023-12-20T11:45:15;6.70;;;2.63;;
49834;SDS011;35729;52.090;13.162;2023-12-20T11:47:49;7.88;;;2.70;;
49834;SDS011;35729;52.090;13.162;2023-12-20T11:50:19;10.77;;;2.58;;
49834;SDS011;35729;52.090;13.162;2023-12-20T11:52:49;7.75;;;3.22;;
49834;SDS011;35729;52.090;13.162;2023-12-20T11:55:19;12.10;;;3.03;;
49834;SDS011;35729;52.090;13.162;2023-12-20T11:57:47;8.25;;;2.75;;
49834;SDS011;35729;52.090;13.162;2023-12-20T12:00:16;8.30;;;3.17;;
49834;SDS011;35729;52.090;13.162;2023-12-20T12:02:58;7.18;;;2.53;;
49834;SDS011;35729;52.090;13.162;2023-12-20T12:05:28;13.55;;;3.35;;
49834;SDS011;35729;52.090;13.162;2023-12-20T12:07:58;15.15;;;3.55;;
49834;SDS011;35729;52.090;13.162;2023-12-20T12:10:26;6.38;;;3.03;;
49834;SDS011;35729;52.090;13.162;2023-12-20T12:12:55;9.27;;;2.97;;
49834;SDS011;35729;52.090;13.162;2023-12-20T12:15:23;9.77;;;2.97;;
49834;SDS011;35729;52.090;13.162;2023-12-20T12:17:53;5.78;;;3.22;;
49834;SDS011;35729;52.090;13.162;2023-12-20T12:20:25;9.60;;;4.20;;
49834;SDS011;35729;52.090;13.162;2023-12-20T12:22:57;12.07;;;3.33;;
49834;SDS011;35729;52.090;13.162;2023-12-20T12:25:26;5.75;;;3.67;;
49834;SDS011;35729;52.090;13.162;2023-12-20T12:27:56;10.52;;;3.22;;
49834;SDS011;35729;52.090;13.162;2023-12-20T12:30:25;9.15;;;3.22;;
49834;SDS011;35729;52.090;13.162;2023-12-20T12:32:55;8.57;;;3.40;;
49834;SDS011;35729;52.090;13.162;2023-12-20T12:35:27;6.80;;;3.03;;
49834;SDS011;35729;52.090;13.162;2023-12-20T12:37:55;8.93;;;2.72;;
49834;SDS011;35729;52.090;13.162;2023-12-20T12:40:28;8.35;;;3.08;;
49834;SDS011;35729;52.090;13.162;2023-12-20T12:42:56;11.85;;;3.60;;
49834;SDS011;35729;52.090;13.162;2023-12-20T12:45:25;8.27;;;2.90;;
49834;SDS011;35729;52.090;13.162;2023-12-20T12:47:54;7.50;;;3.38;;
49834;SDS011;35729;52.090;13.162;2023-12-20T12:50:22;6.72;;;2.67;;
49834;SDS011;35729;52.090;13.162;2023-12-20T12:52:56;10.10;;;3.00;;
49834;SDS011;35729;52.090;13.162;2023-12-20T12:55:24;9.77;;;3.65;;
49834;SDS011;35729;52.090;13.162;2023-12-20T12:57:53;9.85;;;3.78;;
49834;SDS011;35729;52.090;13.162;2023-12-20T13:00:21;9.55;;;4.03;;
49834;SDS011;35729;52.090;13.162;2023-12-20T13:02:51;5.43;;;3.00;;
49834;SDS011;35729;52.090;13.162;2023-12-20T13:05:19;9.93;;;3.03;;
49834;SDS011;35729;52.090;13.162;2023-12-20T13:07:48;8.80;;;3.00;;
49834;SDS011;35729;52.090;13.162;2023-12-20T13:10:19;14.73;;;3.45;;
49834;SDS011;35729;52.090;13.162;2023-12-20T13:12:47;8.40;;;2.95;;
49834;SDS011;35729;52.090;13.162;2023-12-20T13:15:16;5.43;;;2.70;;
49834;SDS011;35729;52.090;13.162;2023-12-20T13:17:45;14.60;;;5.00;;
49834;SDS011;35729;52.090;13.162;2023-12-20T13:20:14;17.08;;;6.15;;
49834;SDS011;35729;52.090;13.162;2023-12-20T13:22:42;23.50;;;6.90;;
49834;SDS011;35729;52.090;13.162;2023-12-20T13:25:12;12.23;;;3.72;;
49834;SDS011;35729;52.090;13.162;2023-12-20T13:27:43;7.90;;;4.30;;
49834;SDS011;35729;52.090;13.162;2023-12-20T13:30:12;11.40;;;4.00;;
49834;SDS011;35729;52.090;13.162;2023-12-20T13:32:41;11.20;;;4.20;;
49834;SDS011;35729;52.090;13.162;2023-12-20T13:35:09;11.52;;;4.50;;
49834;SDS011;35729;52.090;13.162;2023-12-20T13:37:38;6.45;;;4.18;;
49834;SDS011;35729;52.090;13.162;2023-12-20T13:40:07;16.95;;;4.97;;
49834;SDS011;35729;52.090;13.162;2023-12-20T13:42:37;7.10;;;4.05;;
49834;SDS011;35729;52.090;13.162;2023-12-20T13:45:09;10.38;;;4.85;;
49834;SDS011;35729;52.090;13.162;2023-12-20T13:47:37;6.28;;;3.15;;
49834;SDS011;35729;52.090;13.162;2023-12-20T13:50:06;9.95;;;4.15;;
49834;SDS011;35729;52.090;13.162;2023-12-20T13:52:35;6.20;;;2.80;;
49834;SDS011;35729;52.090;13.162;2023-12-20T13:55:04;11.75;;;4.47;;
49834;SDS011;35729;52.090;13.162;2023-12-20T13:57:33;8.45;;;3.15;;
49834;SDS011;35729;52.090;13.162;2023-12-20T14:00:02;8.23;;;3.70;;
49834;SDS011;35729;52.090;13.162;2023-12-20T14:02:40;6.78;;;3.20;;
49834;SDS011;35729;52.090;13.162;2023-12-20T14:05:09;13.63;;;3.10;;
49834;SDS011;35729;52.090;13.162;2023-12-20T14:07:39;8.18;;;3.42;;
49834;SDS011;35729;52.090;13.162;2023-12-20T14:10:10;6.90;;;3.17;;
49834;SDS011;35729;52.090;13.162;2023-12-20T14:12:39;8.70;;;3.00;;
49834;SDS011;35729;52.090;13.162;2023-12-20T14:15:10;7.85;;;3.13;;
49834;SDS011;35729;52.090;13.162;2023-12-20T14:17:42;6.97;;;3.20;;
49834;SDS011;35729;52.090;13.162;2023-12-20T14:20:11;8.27;;;3.17;;
49834;SDS011;35729;52.090;13.162;2023-12-20T14:22:40;9.18;;;3.20;;
49834;SDS011;35729;52.090;13.162;2023-12-20T14:25:11;7.53;;;3.00;;
49834;SDS011;35729;52.090;13.162;2023-12-20T14:27:40;11.75;;;5.38;;
49834;SDS011;35729;52.090;13.162;2023-12-20T14:30:10;12.35;;;5.45;;
49834;SDS011;35729;52.090;13.162;2023-12-20T14:32:42;15.07;;;5.53;;
49834;SDS011;35729;52.090;13.162;2023-12-20T14:35:10;11.80;;;4.75;;
49834;SDS011;35729;52.090;13.162;2023-12-20T14:37:39;9.82;;;4.10;;
49834;SDS011;35729;52.090;13.162;2023-12-20T14:40:08;7.88;;;4.68;;